createdAt,value
2022-09-04T00:00:20.039Z,7.40
2022-09-04T00:03:23.102Z,7.40
2022-09-04T00:05:50.585Z,6.50
2022-09-04T00:08:26.505Z,7.30
2022-09-04T00:10:57.431Z,8.00
2022-09-04T00:13:43.816Z,7.50
2022-09-04T00:16:24.634Z,7.20
2022-09-04T00:19:23.989Z,7.60
2022-09-04T00:22:00.262Z,7.10
2022-09-04T00:24:32.906Z,7.20
2022-09-04T00:27:23.407Z,7.30
2022-09-04T00:30:07.631Z,7.40
2022-09-04T00:32:50.117Z,7.10
2022-09-04T00:35:20.111Z,7.00
2022-09-04T00:37:59.378Z,7.00
2022-09-04T00:40:42.870Z,7.40
2022-09-04T00:43:58.392Z,7.30
2022-09-04T00:46:53.683Z,7.10
2022-09-04T00:49:42.419Z,7.30
2022-09-04T00:52:31.354Z,5.50
2022-09-04T00:55:10.247Z,7.00
2022-09-04T00:57:52.572Z,7.00
2022-09-04T01:00:22.511Z,6.90
2022-09-04T01:02:52.840Z,6.90
2022-09-04T01:05:47.913Z,7.00
2022-09-04T01:08:40.999Z,7.00
2022-09-04T01:11:33.213Z,7.80
2022-09-04T01:14:13.382Z,6.90
2022-09-04T01:16:55.756Z,7.30
2022-09-04T01:19:48.024Z,7.30
2022-09-04T01:22:33.069Z,7.10
2022-09-04T01:25:08.581Z,7.50
2022-09-04T01:28:13.594Z,7.30
2022-09-04T01:30:54.507Z,7.20
2022-09-04T01:33:34.759Z,7.50
2022-09-04T01:36:22.917Z,7.20
2022-09-04T01:38:54.897Z,7.40
2022-09-04T01:41:38.661Z,7.20
2022-09-04T01:44:09.655Z,7.10
2022-09-04T01:46:52.250Z,7.40
2022-09-04T01:49:25.533Z,7.00
2022-09-04T01:51:53.441Z,7.00
2022-09-04T01:54:31.654Z,6.80
2022-09-04T01:57:31.719Z,6.80
2022-09-04T02:00:09.132Z,6.80
2022-09-04T02:03:14.358Z,6.60
2022-09-04T02:06:05.570Z,6.80
2022-09-04T02:08:55.545Z,6.80
2022-09-04T02:11:27.989Z,7.00
2022-09-04T02:14:04.816Z,7.00
2022-09-04T02:16:44.642Z,6.70
2022-09-04T02:19:37.056Z,6.60
2022-09-04T02:22:33.915Z,6.90
2022-09-04T02:25:23.407Z,6.50
2022-09-04T02:28:15.723Z,6.50
2022-09-04T02:31:00.486Z,6.50
2022-09-04T02:33:42.480Z,6.60
2022-09-04T02:36:41.202Z,6.50
2022-09-04T02:39:28.546Z,6.60
2022-09-04T02:42:04.256Z,6.60
2022-09-04T02:44:58.693Z,6.70
2022-09-04T02:47:52.833Z,6.80
2022-09-04T02:50:57.488Z,7.00
2022-09-04T02:54:07.197Z,7.20
2022-09-04T02:56:46.841Z,7.00
2022-09-04T02:59:24.275Z,6.90
2022-09-04T03:01:59.561Z,7.00
2022-09-04T03:04:39.737Z,7.10
2022-09-04T03:07:13.621Z,7.10
2022-09-04T03:09:50.660Z,7.10
2022-09-04T03:12:50.109Z,7.10
2022-09-04T03:15:43.714Z,7.00
2022-09-04T03:18:26.555Z,7.00
2022-09-04T03:21:03.817Z,7.10
2022-09-04T03:23:48.991Z,7.10
2022-09-04T03:26:22.793Z,7.10
2022-09-04T03:29:15.107Z,7.10
2022-09-04T03:31:53.784Z,7.10
2022-09-04T03:34:25.638Z,7.10
2022-09-04T03:37:20.844Z,6.90
2022-09-04T03:40:06.281Z,7.00
2022-09-04T03:43:07.772Z,7.00
2022-09-04T03:45:45.728Z,6.90
2022-09-04T03:49:07.485Z,7.00
2022-09-04T03:51:38.342Z,7.00
2022-09-04T03:54:18.096Z,7.00
2022-09-04T03:57:00.440Z,7.00
2022-09-04T03:59:49.364Z,7.00
2022-09-04T04:02:16.921Z,7.00
2022-09-04T04:05:00.292Z,6.30
2022-09-04T04:07:55.942Z,7.00
2022-09-04T04:10:31.268Z,7.10
2022-09-04T04:13:16.646Z,7.10
2022-09-04T04:16:24.503Z,7.00
2022-09-04T04:19:11.305Z,8.40
2022-09-04T04:21:56.900Z,7.40
2022-09-04T04:24:39.256Z,7.30
2022-09-04T04:27:36.202Z,7.10
2022-09-04T04:30:13.067Z,7.50
2022-09-04T04:33:22.355Z,7.20
2022-09-04T04:36:24.552Z,7.20
2022-09-04T04:39:30.091Z,7.20
2022-09-04T04:42:21.074Z,7.40
2022-09-04T04:45:16.581Z,7.50
2022-09-04T04:47:53.287Z,7.40
2022-09-04T04:50:44.163Z,7.40
2022-09-04T04:53:58.236Z,7.50
2022-09-04T04:56:43.077Z,7.50
2022-09-04T04:59:44.720Z,7.60
2022-09-04T05:02:35.094Z,7.50
2022-09-04T05:05:22.525Z,7.60
2022-09-04T05:07:56.228Z,7.60
2022-09-04T05:10:44.497Z,7.70
2022-09-04T05:13:51.593Z,7.70
2022-09-04T05:16:56.261Z,7.80
2022-09-04T05:20:00.407Z,8.10
2022-09-04T05:22:52.525Z,7.90
2022-09-04T05:25:50.978Z,8.10
2022-09-04T05:28:41.846Z,8.00
2022-09-04T05:31:15.597Z,8.00
2022-09-04T05:33:46.106Z,8.00
2022-09-04T05:36:37.449Z,8.00
2022-09-04T05:39:23.538Z,8.20
2022-09-04T05:42:12.269Z,8.40
2022-09-04T05:44:58.903Z,8.30
2022-09-04T05:47:47.351Z,8.40
2022-09-04T05:53:19.735Z,8.60
2022-09-04T05:56:14.196Z,8.60
2022-09-04T05:59:20.053Z,8.90
2022-09-04T06:02:14.107Z,9.10
2022-09-04T06:05:14.172Z,8.70
2022-09-04T06:08:19.585Z,8.70
2022-09-04T06:11:25.930Z,8.80
2022-09-04T06:14:05.446Z,9.00
2022-09-04T06:16:47.870Z,9.00
2022-09-04T06:19:52.877Z,9.20
2022-09-04T06:22:39.711Z,9.30
2022-09-04T06:25:15.913Z,9.40
2022-09-04T06:27:55.251Z,9.50
2022-09-04T06:30:24.582Z,10.10
2022-09-04T06:33:34.980Z,9.70
2022-09-04T06:36:26.004Z,9.80
2022-09-04T06:39:06.256Z,9.70
2022-09-04T06:41:54.112Z,9.90
2022-09-04T06:44:36.581Z,10.10
2022-09-04T06:47:19.658Z,10.20
2022-09-04T06:50:02.291Z,10.20
2022-09-04T06:52:55.627Z,10.20
2022-09-04T06:55:50.921Z,10.50
2022-09-04T06:58:27.146Z,10.50
2022-09-04T07:01:23.692Z,10.40
2022-09-04T07:04:19.199Z,10.40
2022-09-04T07:06:56.686Z,10.40
2022-09-04T07:09:47.613Z,10.50
2022-09-04T07:12:20.980Z,10.50
2022-09-04T07:15:12.658Z,10.70
2022-09-04T07:18:12.850Z,11.30
2022-09-04T07:21:05.237Z,11.00
2022-09-04T07:24:04.387Z,11.00
2022-09-04T07:26:44.949Z,11.10
2022-09-04T07:29:31.137Z,11.30
2022-09-04T07:32:11.003Z,11.50
2022-09-04T07:34:47.289Z,12.40
2022-09-04T07:37:36.850Z,11.50
2022-09-04T07:40:19.232Z,11.40
2022-09-04T07:43:06.367Z,11.40
2022-09-04T07:45:51.443Z,11.60
2022-09-04T07:48:25.929Z,11.60
2022-09-04T07:51:10.929Z,11.60
2022-09-04T07:53:54.194Z,11.60
2022-09-04T07:56:58.497Z,12.00
2022-09-04T07:59:50.083Z,11.80
2022-09-04T08:02:35.981Z,12.00
2022-09-04T08:05:23.619Z,12.30
2022-09-04T08:08:10.783Z,12.00
2022-09-04T08:11:01.153Z,12.10
2022-09-04T08:14:06.794Z,12.10
2022-09-04T08:16:47.961Z,12.30
2022-09-04T08:19:56.408Z,12.40
2022-09-04T08:22:36.668Z,12.50
2022-09-04T08:25:30.234Z,12.60
2022-09-04T08:28:12.842Z,12.60
2022-09-04T08:30:49.416Z,12.70
2022-09-04T08:33:45.109Z,12.60
2022-09-04T08:36:31.766Z,12.70
2022-09-04T08:39:07.138Z,12.90
2022-09-04T08:42:17.080Z,12.60
2022-09-04T08:44:50.316Z,12.90
2022-09-04T08:47:54.117Z,13.10
2022-09-04T08:50:51.820Z,13.20
2022-09-04T08:53:57.035Z,13.30
2022-09-04T08:56:40.544Z,13.40
2022-09-04T08:59:38.562Z,13.30
2022-09-04T09:02:40.070Z,13.20
2022-09-04T09:05:16.705Z,13.30
2022-09-04T09:08:29.713Z,13.10
2022-09-04T09:11:35.470Z,12.80
2022-09-04T09:14:27.718Z,13.20
2022-09-04T09:17:17.106Z,13.10
2022-09-04T09:20:23.740Z,13.00
2022-09-04T09:23:22.712Z,12.20
2022-09-04T09:26:08.864Z,12.00
2022-09-04T09:29:13.405Z,13.10
2022-09-04T09:32:14.620Z,13.10
2022-09-04T09:35:00.914Z,12.20
2022-09-04T09:37:59.098Z,13.10
2022-09-04T09:40:48.066Z,12.90
2022-09-04T09:43:51.172Z,13.20
2022-09-04T09:46:39.984Z,12.90
2022-09-04T09:49:32.795Z,13.00
2022-09-04T09:52:09.212Z,13.20
2022-09-04T09:54:58.789Z,13.30
2022-09-04T09:57:48.206Z,13.30
2022-09-04T10:00:25.915Z,13.30
2022-09-04T10:03:02.772Z,13.20
2022-09-04T10:05:57.658Z,13.20
2022-09-04T10:08:31.783Z,13.20
2022-09-04T10:11:15.231Z,13.20
2022-09-04T10:14:13.223Z,12.90
2022-09-04T10:16:53.054Z,12.80
2022-09-04T10:19:46.665Z,13.20
2022-09-04T10:22:51.728Z,13.40
2022-09-04T10:25:51.564Z,13.40
2022-09-04T10:29:11.134Z,13.50
2022-09-04T10:31:57.536Z,13.90
2022-09-04T10:34:54.504Z,14.40
2022-09-04T10:37:35.761Z,14.60
2022-09-04T10:40:43.827Z,14.70
2022-09-04T10:43:37.625Z,15.20
2022-09-04T10:46:29.189Z,15.40
2022-09-04T10:49:31.336Z,15.20
2022-09-04T10:52:25.911Z,14.40
2022-09-04T10:55:15.073Z,14.10
2022-09-04T10:57:49.193Z,13.80
2022-09-04T11:00:22.190Z,13.60
2022-09-04T11:03:11.828Z,13.60
2022-09-04T11:06:02.491Z,14.30
2022-09-04T11:08:45.821Z,15.00
2022-09-04T11:11:44.239Z,14.90
2022-09-04T11:14:17.774Z,14.80
2022-09-04T11:17:14.741Z,14.30
2022-09-04T11:20:24.263Z,13.80
2022-09-04T11:23:29.992Z,13.30
2022-09-04T11:26:24.076Z,13.30
2022-09-04T11:28:57.788Z,13.40
2022-09-04T11:31:34.653Z,13.70
2022-09-04T11:34:17.636Z,13.80
2022-09-04T11:37:22.875Z,14.60
2022-09-04T11:39:53.136Z,14.30
2022-09-04T11:42:45.049Z,14.40
2022-09-04T11:45:43.268Z,14.60
2022-09-04T11:48:41.411Z,15.00
2022-09-04T11:51:40.576Z,14.40
2022-09-04T11:54:26.700Z,14.00
2022-09-04T11:57:49.095Z,13.60
2022-09-04T12:00:18.315Z,13.90
2022-09-04T12:03:26.438Z,13.50
2022-09-04T12:06:07.283Z,13.40
2022-09-04T12:08:44.618Z,13.60
2022-09-04T12:11:20.951Z,14.40
2022-09-04T12:14:12.361Z,14.60
2022-09-04T12:17:05.642Z,14.60
2022-09-04T12:19:53.483Z,14.10
2022-09-04T12:22:51.903Z,13.80
2022-09-04T12:25:36.395Z,14.30
2022-09-04T12:28:14.648Z,14.70
2022-09-04T12:30:51.012Z,14.80
2022-09-04T12:33:53.481Z,15.10
2022-09-04T12:36:36.460Z,13.80
2022-09-04T12:39:31.852Z,13.50
2022-09-04T12:42:26.376Z,13.40
2022-09-04T12:44:58.207Z,13.40
2022-09-04T12:47:58.373Z,13.60
2022-09-04T12:50:33.412Z,14.10
2022-09-04T12:53:33.170Z,14.30
2022-09-04T12:56:10.332Z,14.30
2022-09-04T12:58:56.735Z,13.90
2022-09-04T13:01:48.986Z,13.80
2022-09-04T13:04:47.319Z,13.80
2022-09-04T13:07:31.275Z,14.00
2022-09-04T13:10:17.311Z,14.10
2022-09-04T13:12:59.607Z,14.20
2022-09-04T13:15:30.271Z,14.10
2022-09-04T13:18:21.537Z,13.90
2022-09-04T13:21:09.158Z,13.60
2022-09-04T13:24:15.072Z,13.60
2022-09-04T13:26:45.565Z,13.40
2022-09-04T13:29:16.641Z,13.60
2022-09-04T13:32:00.983Z,13.90
2022-09-04T13:34:59.142Z,14.00
2022-09-04T13:37:54.588Z,13.80
2022-09-04T13:41:03.809Z,13.70
2022-09-04T13:43:53.137Z,13.70
2022-09-04T13:46:35.309Z,13.60
2022-09-04T13:49:29.403Z,13.50
2022-09-04T13:52:07.542Z,13.40
2022-09-04T13:54:41.442Z,13.50
2022-09-04T13:57:21.439Z,13.40
2022-09-04T13:59:50.641Z,13.30
2022-09-04T14:02:24.654Z,13.30
2022-09-04T14:04:58.011Z,13.40
2022-09-04T14:07:36.192Z,13.60
2022-09-04T14:10:13.804Z,13.70
2022-09-04T14:12:54.172Z,13.90
2022-09-04T14:15:22.097Z,14.00
2022-09-04T14:18:04.521Z,13.70
2022-09-04T14:21:00.976Z,14.00
2022-09-04T14:23:53.897Z,13.50
2022-09-04T14:26:45.428Z,13.40
2022-09-04T14:29:49.461Z,13.20
2022-09-04T14:32:42.913Z,13.30
2022-09-04T14:35:35.349Z,13.20
2022-09-04T14:38:08.821Z,13.60
2022-09-04T14:41:03.151Z,13.40
2022-09-04T14:43:47.552Z,13.40
2022-09-04T14:46:36.501Z,13.40
2022-09-04T14:49:13.794Z,13.40
2022-09-04T14:51:47.693Z,13.30
2022-09-04T14:54:43.814Z,13.30
2022-09-04T14:57:42.830Z,13.20
2022-09-04T15:00:21.087Z,13.20
2022-09-04T15:03:28.144Z,13.20
2022-09-04T15:06:19.362Z,13.20
2022-09-04T15:08:51.146Z,13.10
2022-09-04T15:11:32.127Z,13.40
2022-09-04T15:14:32.964Z,13.20
2022-09-04T15:17:06.214Z,13.10
2022-09-04T15:19:49.283Z,13.20
2022-09-04T15:22:22.631Z,13.10
2022-09-04T15:25:08.930Z,12.80
2022-09-04T15:27:51.570Z,13.30
2022-09-04T15:30:24.779Z,13.60
2022-09-04T15:33:08.381Z,12.90
2022-09-04T15:35:37.261Z,12.90
2022-09-04T15:38:21.373Z,13.00
2022-09-04T15:41:17.927Z,13.20
2022-09-04T15:44:19.844Z,13.60
2022-09-04T15:47:02.426Z,12.90
2022-09-04T15:49:52.432Z,12.90
2022-09-04T15:52:41.656Z,13.00
2022-09-04T15:55:22.642Z,13.20
2022-09-04T15:58:05.023Z,13.00
2022-09-04T16:00:40.621Z,13.00
2022-09-04T16:03:15.191Z,13.00
2022-09-04T16:05:49.394Z,13.00
2022-09-04T16:08:21.179Z,13.30
2022-09-04T16:10:59.671Z,13.40
2022-09-04T16:13:27.515Z,13.40
2022-09-04T16:16:22.083Z,13.30
2022-09-04T16:19:08.845Z,12.90
2022-09-04T16:22:19.722Z,12.90
2022-09-04T16:24:51.375Z,12.80
2022-09-04T16:27:23.347Z,12.70
2022-09-04T16:30:04.567Z,12.10
2022-09-04T16:32:35.467Z,12.70
2022-09-04T16:35:21.489Z,12.70
2022-09-04T16:38:15.573Z,12.80
2022-09-04T16:40:56.454Z,12.80
2022-09-04T16:43:27.639Z,12.80
2022-09-04T16:46:10.404Z,12.80
2022-09-04T16:48:37.891Z,12.80
2022-09-04T16:51:41.245Z,12.80
2022-09-04T16:54:49.307Z,12.80
2022-09-04T16:57:21.676Z,10.50
2022-09-04T16:59:58.984Z,13.10
2022-09-04T17:02:51.018Z,13.40
2022-09-04T17:05:35.938Z,12.80
2022-09-04T17:08:30.788Z,12.60
2022-09-04T17:11:04.548Z,12.40
2022-09-04T17:13:57.073Z,12.50
2022-09-04T17:16:32.808Z,12.60
2022-09-04T17:19:00.538Z,12.60
2022-09-04T17:28:54.336Z,12.60
2022-09-04T17:29:19.383Z,12.70
2022-09-04T17:29:29.732Z,12.60
2022-09-04T17:31:53.786Z,13.20
2022-09-04T17:40:31.941Z,12.60
2022-09-04T17:40:49.126Z,12.60
2022-09-04T17:41:47.397Z,12.50
2022-09-04T17:44:46.960Z,12.40
2022-09-04T17:47:45.369Z,12.10
2022-09-04T17:50:22.759Z,12.00
2022-09-04T17:53:13.145Z,11.70
2022-09-04T17:56:06.895Z,11.00
2022-09-04T17:58:50.064Z,11.30
2022-09-04T18:01:21.339Z,11.10
2022-09-04T18:04:02.876Z,10.90
2022-09-04T18:07:28.770Z,11.00
2022-09-04T18:10:03.637Z,10.90
2022-09-04T18:12:44.300Z,10.80
2022-09-04T18:15:33.528Z,10.80
2022-09-04T18:18:18.175Z,10.80
2022-09-04T18:20:51.915Z,10.70
2022-09-04T18:23:25.557Z,10.70
2022-09-04T18:26:09.994Z,10.80
2022-09-04T18:28:57.583Z,10.70
2022-09-04T18:37:17.226Z,11.10
2022-09-04T18:37:18.976Z,10.70
2022-09-04T18:37:47.013Z,10.30
2022-09-04T18:40:47.664Z,10.80
2022-09-04T18:50:21.407Z,10.80
2022-09-04T18:50:31.108Z,11.20
2022-09-04T18:50:38.690Z,10.80
2022-09-04T18:52:04.182Z,11.00
2022-09-04T18:54:42.728Z,11.00
2022-09-04T18:57:48.105Z,10.70
2022-09-04T19:00:34.198Z,10.60
2022-09-04T19:03:23.438Z,10.60
2022-09-04T19:05:56.972Z,10.60
2022-09-04T19:08:31.880Z,10.60
2022-09-04T19:11:20.429Z,10.60
2022-09-04T19:14:22.139Z,10.70
2022-09-04T19:17:08.417Z,10.70
2022-09-04T19:19:47.396Z,10.80
2022-09-04T19:22:35.373Z,10.70
2022-09-04T19:25:15.579Z,10.60
2022-09-04T19:27:45.873Z,10.80
2022-09-04T19:30:23.563Z,10.60
2022-09-04T19:33:03.283Z,10.90
2022-09-04T19:35:37.596Z,10.70
2022-09-04T19:43:49.849Z,10.90
2022-09-04T19:46:08.223Z,10.60
2022-09-04T19:46:19.141Z,10.70
2022-09-04T19:47:27.018Z,10.70
2022-09-04T19:53:19.110Z,10.60
2022-09-04T19:53:37.768Z,10.90
2022-09-04T19:56:30.137Z,10.70
2022-09-04T19:59:11.806Z,10.70
2022-09-04T20:01:46.867Z,10.70
2022-09-04T20:04:42.015Z,10.60
2022-09-04T20:07:45.836Z,11.20
2022-09-04T20:10:37.498Z,10.60
2022-09-04T20:13:08.189Z,10.50
2022-09-04T20:15:42.355Z,10.60
2022-09-04T20:18:18.550Z,10.60
2022-09-04T20:20:55.088Z,10.70
2022-09-04T20:23:34.078Z,10.70
2022-09-04T20:26:23.687Z,10.70
2022-09-04T20:28:59.238Z,10.50
2022-09-04T20:31:39.147Z,10.40
2022-09-04T20:34:23.218Z,10.30
2022-09-04T20:36:57.759Z,10.20
2022-09-04T20:39:54.563Z,10.30
2022-09-04T20:42:29.056Z,10.30
2022-09-04T20:50:05.047Z,10.40
2022-09-04T20:52:56.250Z,10.40
2022-09-04T20:53:06.042Z,10.40
2022-09-04T20:53:58.253Z,10.40
2022-09-04T21:00:37.897Z,10.70
2022-09-04T21:03:13.906Z,10.70
2022-09-04T21:03:29.826Z,10.70
2022-09-04T21:06:06.759Z,10.60
2022-09-04T21:08:52.600Z,10.20
2022-09-04T21:11:40.571Z,10.20
2022-09-04T21:14:15.396Z,10.20
2022-09-04T21:17:35.117Z,10.60
2022-09-04T21:20:11.298Z,10.30
2022-09-04T21:23:06.192Z,9.70
2022-09-04T21:26:24.583Z,10.60
2022-09-04T21:28:55.200Z,10.10
2022-09-04T21:31:44.171Z,10.10
2022-09-04T21:34:24.041Z,10.10
2022-09-04T21:37:14.454Z,10.30
2022-09-04T21:40:50.124Z,10.20
2022-09-04T21:43:21.913Z,9.90
2022-09-04T21:45:58.769Z,9.90
2022-09-04T21:48:54.858Z,9.70
2022-09-04T21:51:31.337Z,9.70
2022-09-04T21:55:24.574Z,9.60
2022-09-04T22:02:31.069Z,9.70
2022-09-04T22:02:41.329Z,9.40
2022-09-04T22:03:15.435Z,9.40
2022-09-04T22:05:53.637Z,9.40
2022-09-04T22:13:32.755Z,9.70
2022-09-04T22:13:41.040Z,9.30
2022-09-04T22:14:36.816Z,9.40
2022-09-04T22:17:26.054Z,9.20
2022-09-04T22:20:25.417Z,9.40
2022-09-04T22:23:40.084Z,9.00
2022-09-04T22:26:27.856Z,9.20
2022-09-04T22:29:40.616Z,9.20
2022-09-04T22:32:29.073Z,9.00
2022-09-04T22:35:27.776Z,8.90
2022-09-04T22:38:31.380Z,8.90
2022-09-04T22:41:19.362Z,8.90
2022-09-04T22:44:07.233Z,9.00
2022-09-04T22:46:55.933Z,9.00
2022-09-04T22:49:29.482Z,9.00
2022-09-04T22:52:41.239Z,8.90
2022-09-04T22:55:40.191Z,8.90
2022-09-04T22:58:23.148Z,8.80
2022-09-04T23:01:06.249Z,8.90
2022-09-04T23:03:59.813Z,8.90
2022-09-04T23:13:01.348Z,8.90
2022-09-04T23:13:54.297Z,8.90
2022-09-04T23:13:58.563Z,8.90
2022-09-04T23:16:06.560Z,8.90
2022-09-04T23:23:07.697Z,9.00
2022-09-04T23:26:37.588Z,8.90
2022-09-04T23:26:53.129Z,8.90
2022-09-04T23:28:28.583Z,9.00
2022-09-04T23:31:27.341Z,9.10
2022-09-04T23:34:26.442Z,9.00
2022-09-04T23:37:21.893Z,9.10
2022-09-04T23:40:27.658Z,9.10
2022-09-04T23:43:14.194Z,9.20
2022-09-04T23:46:09.818Z,9.30
2022-09-04T23:48:49.370Z,9.30
2022-09-04T23:51:45.330Z,9.30
2022-09-04T23:54:50.468Z,9.70
2022-09-04T23:57:27.178Z,9.20
